sensor_id;sensor_type;location;lat;lon;timestamp;P1;durP1;ratioP1;P2;durP2;ratioP2
51010;SDS011;37038;50.182;8.624;2022-10-23T00:01:45;15.55;;;6.30;;
51010;SDS011;37038;50.182;8.624;2022-10-23T00:04:37;16.98;;;6.80;;
51010;SDS011;37038;50.182;8.624;2022-10-23T00:07:26;19.80;;;6.20;;
51010;SDS011;37038;50.182;8.624;2022-10-23T00:10:14;9.65;;;5.85;;
51010;SDS011;37038;50.182;8.624;2022-10-23T00:13:06;13.82;;;5.85;;
51010;SDS011;37038;50.182;8.624;2022-10-23T00:15:56;16.98;;;6.90;;
51010;SDS011;37038;50.182;8.624;2022-10-23T00:18:45;14.00;;;6.55;;
51010;SDS011;37038;50.182;8.624;2022-10-23T00:21:34;11.05;;;5.57;;
51010;SDS011;37038;50.182;8.624;2022-10-23T00:24:25;13.18;;;6.07;;
51010;SDS011;37038;50.182;8.624;2022-10-23T00:27:13;16.90;;;6.07;;
51010;SDS011;37038;50.182;8.624;2022-10-23T00:30:02;9.18;;;5.80;;
51010;SDS011;37038;50.182;8.624;2022-10-23T00:32:51;13.80;;;6.35;;
51010;SDS011;37038;50.182;8.624;2022-10-23T00:35:43;10.48;;;6.70;;
51010;SDS011;37038;50.182;8.624;2022-10-23T00:38:31;9.57;;;6.20;;
51010;SDS011;37038;50.182;8.624;2022-10-23T00:41:25;15.32;;;6.55;;
51010;SDS011;37038;50.182;8.624;2022-10-23T00:47:10;13.43;;;6.55;;
51010;SDS011;37038;50.182;8.624;2022-10-23T00:50:00;9.80;;;5.63;;
51010;SDS011;37038;50.182;8.624;2022-10-23T00:52:49;12.30;;;6.60;;
51010;SDS011;37038;50.182;8.624;2022-10-23T00:55:42;11.13;;;6.13;;
51010;SDS011;37038;50.182;8.624;2022-10-23T00:58:35;14.02;;;6.38;;
51010;SDS011;37038;50.182;8.624;2022-10-23T01:01:24;15.20;;;6.88;;
51010;SDS011;37038;50.182;8.624;2022-10-23T01:04:13;13.27;;;7.57;;
51010;SDS011;37038;50.182;8.624;2022-10-23T01:07:10;18.88;;;6.60;;
51010;SDS011;37038;50.182;8.624;2022-10-23T01:10:26;16.35;;;7.15;;
51010;SDS011;37038;50.182;8.624;2022-10-23T01:13:36;12.20;;;7.87;;
51010;SDS011;37038;50.182;8.624;2022-10-23T01:16:52;19.27;;;8.45;;
51010;SDS011;37038;50.182;8.624;2022-10-23T01:20:13;12.50;;;6.88;;
51010;SDS011;37038;50.182;8.624;2022-10-23T01:23:34;16.90;;;6.88;;
51010;SDS011;37038;50.182;8.624;2022-10-23T01:30:31;10.70;;;6.72;;
51010;SDS011;37038;50.182;8.624;2022-10-23T01:33:49;13.68;;;6.78;;
51010;SDS011;37038;50.182;8.624;2022-10-23T01:36:43;17.33;;;7.03;;
51010;SDS011;37038;50.182;8.624;2022-10-23T01:39:36;18.30;;;6.60;;
51010;SDS011;37038;50.182;8.624;2022-10-23T01:42:38;12.27;;;6.13;;
51010;SDS011;37038;50.182;8.624;2022-10-23T01:45:36;14.00;;;6.40;;
51010;SDS011;37038;50.182;8.624;2022-10-23T01:48:32;14.00;;;6.00;;
51010;SDS011;37038;50.182;8.624;2022-10-23T01:51:23;10.30;;;5.72;;
51010;SDS011;37038;50.182;8.624;2022-10-23T01:54:15;15.10;;;6.72;;
51010;SDS011;37038;50.182;8.624;2022-10-23T01:57:07;15.52;;;7.25;;
51010;SDS011;37038;50.182;8.624;2022-10-23T02:00:04;12.45;;;7.35;;
51010;SDS011;37038;50.182;8.624;2022-10-23T02:02:59;18.35;;;6.93;;
51010;SDS011;37038;50.182;8.624;2022-10-23T02:05:51;13.63;;;7.20;;
51010;SDS011;37038;50.182;8.624;2022-10-23T02:08:40;13.40;;;7.53;;
51010;SDS011;37038;50.182;8.624;2022-10-23T02:11:29;22.33;;;7.28;;
51010;SDS011;37038;50.182;8.624;2022-10-23T02:14:28;18.85;;;6.40;;
51010;SDS011;37038;50.182;8.624;2022-10-23T02:17:33;13.50;;;7.05;;
51010;SDS011;37038;50.182;8.624;2022-10-23T02:20:46;17.80;;;7.72;;
51010;SDS011;37038;50.182;8.624;2022-10-23T02:23:48;14.57;;;7.63;;
51010;SDS011;37038;50.182;8.624;2022-10-23T02:26:49;16.15;;;6.97;;
51010;SDS011;37038;50.182;8.624;2022-10-23T02:29:59;13.65;;;7.18;;
51010;SDS011;37038;50.182;8.624;2022-10-23T02:32:58;13.93;;;6.07;;
51010;SDS011;37038;50.182;8.624;2022-10-23T02:35:49;14.18;;;6.75;;
51010;SDS011;37038;50.182;8.624;2022-10-23T02:38:39;11.32;;;5.95;;
51010;SDS011;37038;50.182;8.624;2022-10-23T02:48:22;11.88;;;7.20;;
51010;SDS011;37038;50.182;8.624;2022-10-23T02:58:18;18.02;;;7.18;;
51010;SDS011;37038;50.182;8.624;2022-10-23T03:01:18;13.93;;;7.50;;
51010;SDS011;37038;50.182;8.624;2022-10-23T03:04:11;11.85;;;6.82;;
51010;SDS011;37038;50.182;8.624;2022-10-23T03:07:02;7.55;;;6.28;;
51010;SDS011;37038;50.182;8.624;2022-10-23T03:09:53;9.90;;;5.63;;
51010;SDS011;37038;50.182;8.624;2022-10-23T03:12:44;10.52;;;6.72;;
51010;SDS011;37038;50.182;8.624;2022-10-23T03:15:33;13.32;;;7.20;;
51010;SDS011;37038;50.182;8.624;2022-10-23T03:18:22;12.43;;;6.57;;
51010;SDS011;37038;50.182;8.624;2022-10-23T03:21:10;12.20;;;6.93;;
51010;SDS011;37038;50.182;8.624;2022-10-23T03:23:58;13.57;;;7.82;;
51010;SDS011;37038;50.182;8.624;2022-10-23T03:26:49;14.48;;;6.53;;
51010;SDS011;37038;50.182;8.624;2022-10-23T03:29:37;11.75;;;6.57;;
51010;SDS011;37038;50.182;8.624;2022-10-23T03:32:26;11.25;;;6.55;;
51010;SDS011;37038;50.182;8.624;2022-10-23T03:35:14;15.82;;;7.43;;
51010;SDS011;37038;50.182;8.624;2022-10-23T03:38:03;17.90;;;8.07;;
51010;SDS011;37038;50.182;8.624;2022-10-23T03:40:51;11.23;;;7.57;;
51010;SDS011;37038;50.182;8.624;2022-10-23T03:43:40;16.42;;;6.57;;
51010;SDS011;37038;50.182;8.624;2022-10-23T03:46:28;17.23;;;7.22;;
51010;SDS011;37038;50.182;8.624;2022-10-23T03:49:16;14.23;;;6.65;;
51010;SDS011;37038;50.182;8.624;2022-10-23T03:52:07;12.38;;;7.07;;
51010;SDS011;37038;50.182;8.624;2022-10-23T03:54:57;10.43;;;7.88;;
51010;SDS011;37038;50.182;8.624;2022-10-23T03:57:46;12.00;;;7.53;;
51010;SDS011;37038;50.182;8.624;2022-10-23T04:00:34;18.35;;;7.30;;
51010;SDS011;37038;50.182;8.624;2022-10-23T04:03:23;12.32;;;6.97;;
51010;SDS011;37038;50.182;8.624;2022-10-23T04:06:15;11.70;;;7.15;;
51010;SDS011;37038;50.182;8.624;2022-10-23T04:09:06;11.68;;;6.95;;
51010;SDS011;37038;50.182;8.624;2022-10-23T04:11:54;10.60;;;6.15;;
51010;SDS011;37038;50.182;8.624;2022-10-23T04:14:43;10.63;;;7.10;;
51010;SDS011;37038;50.182;8.624;2022-10-23T04:17:31;13.77;;;8.23;;
51010;SDS011;37038;50.182;8.624;2022-10-23T04:20:20;15.32;;;7.05;;
51010;SDS011;37038;50.182;8.624;2022-10-23T04:23:08;14.27;;;7.50;;
51010;SDS011;37038;50.182;8.624;2022-10-23T04:25:59;11.13;;;6.53;;
51010;SDS011;37038;50.182;8.624;2022-10-23T04:28:48;11.98;;;7.20;;
51010;SDS011;37038;50.182;8.624;2022-10-23T04:31:36;13.20;;;7.55;;
51010;SDS011;37038;50.182;8.624;2022-10-23T04:34:24;17.75;;;7.65;;
51010;SDS011;37038;50.182;8.624;2022-10-23T04:37:12;14.23;;;7.35;;
51010;SDS011;37038;50.182;8.624;2022-10-23T04:40:01;12.45;;;8.07;;
51010;SDS011;37038;50.182;8.624;2022-10-23T04:42:49;10.38;;;7.32;;
51010;SDS011;37038;50.182;8.624;2022-10-23T04:45:37;15.15;;;8.15;;
51010;SDS011;37038;50.182;8.624;2022-10-23T04:48:26;18.45;;;8.10;;
51010;SDS011;37038;50.182;8.624;2022-10-23T04:51:15;14.88;;;7.40;;
51010;SDS011;37038;50.182;8.624;2022-10-23T04:54:04;10.95;;;6.80;;
51010;SDS011;37038;50.182;8.624;2022-10-23T04:56:53;15.15;;;6.55;;
51010;SDS011;37038;50.182;8.624;2022-10-23T04:59:42;12.80;;;7.22;;
51010;SDS011;37038;50.182;8.624;2022-10-23T05:02:30;10.68;;;6.70;;
51010;SDS011;37038;50.182;8.624;2022-10-23T05:05:19;17.17;;;7.72;;
51010;SDS011;37038;50.182;8.624;2022-10-23T05:08:08;14.63;;;6.55;;
51010;SDS011;37038;50.182;8.624;2022-10-23T05:11:03;12.95;;;7.13;;
51010;SDS011;37038;50.182;8.624;2022-10-23T05:13:51;18.25;;;8.27;;
51010;SDS011;37038;50.182;8.624;2022-10-23T05:16:51;16.38;;;7.63;;
51010;SDS011;37038;50.182;8.624;2022-10-23T05:19:50;14.65;;;8.50;;
51010;SDS011;37038;50.182;8.624;2022-10-23T05:22:44;14.23;;;7.80;;
51010;SDS011;37038;50.182;8.624;2022-10-23T05:25:40;20.30;;;10.63;;
51010;SDS011;37038;50.182;8.624;2022-10-23T05:28:34;14.00;;;8.25;;
51010;SDS011;37038;50.182;8.624;2022-10-23T05:31:29;12.93;;;7.63;;
51010;SDS011;37038;50.182;8.624;2022-10-23T05:34:20;15.75;;;8.70;;
51010;SDS011;37038;50.182;8.624;2022-10-23T05:37:12;14.23;;;7.95;;
51010;SDS011;37038;50.182;8.624;2022-10-23T05:40:03;13.75;;;7.40;;
51010;SDS011;37038;50.182;8.624;2022-10-23T17:30:25;14.68;;;9.13;;
51010;SDS011;37038;50.182;8.624;2022-10-23T18:19:23;9.48;;;6.70;;
51010;SDS011;37038;50.182;8.624;2022-10-23T18:22:46;14.03;;;7.83;;
51010;SDS011;37038;50.182;8.624;2022-10-23T18:26:16;13.20;;;8.40;;
51010;SDS011;37038;50.182;8.624;2022-10-23T18:30:18;16.45;;;9.13;;
51010;SDS011;37038;50.182;8.624;2022-10-23T18:33:25;13.52;;;8.85;;
51010;SDS011;37038;50.182;8.624;2022-10-23T18:36:21;19.60;;;9.85;;
51010;SDS011;37038;50.182;8.624;2022-10-23T18:39:16;15.82;;;10.40;;
51010;SDS011;37038;50.182;8.624;2022-10-23T18:45:16;18.85;;;10.27;;
51010;SDS011;37038;50.182;8.624;2022-10-23T18:48:15;14.70;;;9.68;;
51010;SDS011;37038;50.182;8.624;2022-10-23T18:51:14;13.98;;;10.57;;
51010;SDS011;37038;50.182;8.624;2022-10-23T18:54:12;13.23;;;9.27;;
51010;SDS011;37038;50.182;8.624;2022-10-23T18:57:14;18.33;;;10.00;;
51010;SDS011;37038;50.182;8.624;2022-10-23T19:00:18;16.42;;;10.00;;
51010;SDS011;37038;50.182;8.624;2022-10-23T19:03:27;16.02;;;11.43;;
51010;SDS011;37038;50.182;8.624;2022-10-23T19:06:17;15.00;;;10.30;;
51010;SDS011;37038;50.182;8.624;2022-10-23T19:09:22;16.88;;;9.70;;
51010;SDS011;37038;50.182;8.624;2022-10-23T19:12:43;18.05;;;10.65;;
51010;SDS011;37038;50.182;8.624;2022-10-23T19:16:01;17.67;;;9.95;;
51010;SDS011;37038;50.182;8.624;2022-10-23T19:19:52;16.10;;;11.18;;
51010;SDS011;37038;50.182;8.624;2022-10-23T19:23:22;18.05;;;10.52;;
51010;SDS011;37038;50.182;8.624;2022-10-23T19:29:58;21.60;;;13.68;;
51010;SDS011;37038;50.182;8.624;2022-10-23T19:33:05;23.58;;;14.05;;
51010;SDS011;37038;50.182;8.624;2022-10-23T19:36:16;24.75;;;13.85;;
51010;SDS011;37038;50.182;8.624;2022-10-23T19:39:09;26.38;;;16.42;;
51010;SDS011;37038;50.182;8.624;2022-10-23T19:41:57;30.25;;;19.23;;
51010;SDS011;37038;50.182;8.624;2022-10-23T19:44:45;30.35;;;17.38;;
51010;SDS011;37038;50.182;8.624;2022-10-23T19:48:08;23.20;;;14.32;;
51010;SDS011;37038;50.182;8.624;2022-10-23T19:51:02;25.20;;;14.65;;
51010;SDS011;37038;50.182;8.624;2022-10-23T19:53:54;23.38;;;14.70;;
51010;SDS011;37038;50.182;8.624;2022-10-23T19:56:42;19.88;;;14.95;;
51010;SDS011;37038;50.182;8.624;2022-10-23T19:59:29;23.63;;;15.18;;
51010;SDS011;37038;50.182;8.624;2022-10-23T20:02:18;32.28;;;16.58;;
51010;SDS011;37038;50.182;8.624;2022-10-23T20:05:06;28.65;;;16.92;;
51010;SDS011;37038;50.182;8.624;2022-10-23T20:07:57;20.05;;;12.90;;
51010;SDS011;37038;50.182;8.624;2022-10-23T20:10:44;25.88;;;14.98;;
51010;SDS011;37038;50.182;8.624;2022-10-23T20:13:39;21.15;;;14.68;;
51010;SDS011;37038;50.182;8.624;2022-10-23T20:16:34;34.17;;;20.52;;
51010;SDS011;37038;50.182;8.624;2022-10-23T20:19:28;37.42;;;17.80;;
51010;SDS011;37038;50.182;8.624;2022-10-23T20:22:16;37.28;;;22.25;;
51010;SDS011;37038;50.182;8.624;2022-10-23T20:25:09;38.60;;;21.25;;
51010;SDS011;37038;50.182;8.624;2022-10-23T20:28:02;30.73;;;17.85;;
51010;SDS011;37038;50.182;8.624;2022-10-23T20:31:15;23.58;;;15.82;;
51010;SDS011;37038;50.182;8.624;2022-10-23T20:34:07;28.02;;;15.68;;
51010;SDS011;37038;50.182;8.624;2022-10-23T20:36:59;23.75;;;13.73;;
51010;SDS011;37038;50.182;8.624;2022-10-23T20:39:47;23.50;;;14.50;;
51010;SDS011;37038;50.182;8.624;2022-10-23T20:42:35;27.40;;;15.00;;
51010;SDS011;37038;50.182;8.624;2022-10-23T20:45:22;27.58;;;16.05;;
51010;SDS011;37038;50.182;8.624;2022-10-23T20:48:10;22.52;;;14.35;;
51010;SDS011;37038;50.182;8.624;2022-10-23T20:51:00;24.92;;;13.80;;
51010;SDS011;37038;50.182;8.624;2022-10-23T20:53:51;23.58;;;13.55;;
51010;SDS011;37038;50.182;8.624;2022-10-23T20:56:43;21.25;;;13.43;;
51010;SDS011;37038;50.182;8.624;2022-10-23T20:59:30;23.83;;;13.93;;
51010;SDS011;37038;50.182;8.624;2022-10-23T21:02:22;30.83;;;15.40;;
51010;SDS011;37038;50.182;8.624;2022-10-23T21:05:10;27.35;;;14.55;;
51010;SDS011;37038;50.182;8.624;2022-10-23T21:07:58;28.08;;;16.95;;
51010;SDS011;37038;50.182;8.624;2022-10-23T21:10:45;22.13;;;14.15;;
51010;SDS011;37038;50.182;8.624;2022-10-23T21:13:33;25.58;;;12.88;;
51010;SDS011;37038;50.182;8.624;2022-10-23T21:16:23;25.23;;;16.67;;
51010;SDS011;37038;50.182;8.624;2022-10-23T21:19:14;24.38;;;14.60;;
51010;SDS011;37038;50.182;8.624;2022-10-23T21:22:02;29.42;;;13.50;;
51010;SDS011;37038;50.182;8.624;2022-10-23T21:24:49;24.05;;;15.02;;
51010;SDS011;37038;50.182;8.624;2022-10-23T21:27:37;29.02;;;16.75;;
51010;SDS011;37038;50.182;8.624;2022-10-23T21:30:24;23.42;;;15.27;;
51010;SDS011;37038;50.182;8.624;2022-10-23T21:33:12;21.23;;;13.18;;
51010;SDS011;37038;50.182;8.624;2022-10-23T21:36:00;21.98;;;12.55;;
51010;SDS011;37038;50.182;8.624;2022-10-23T21:39:00;24.80;;;14.23;;
51010;SDS011;37038;50.182;8.624;2022-10-23T21:41:48;29.23;;;14.02;;
51010;SDS011;37038;50.182;8.624;2022-10-23T21:44:36;22.50;;;13.52;;
51010;SDS011;37038;50.182;8.624;2022-10-23T21:47:23;27.38;;;14.07;;
51010;SDS011;37038;50.182;8.624;2022-10-23T21:50:11;25.55;;;13.18;;
51010;SDS011;37038;50.182;8.624;2022-10-23T21:52:59;21.58;;;14.05;;
51010;SDS011;37038;50.182;8.624;2022-10-23T21:55:46;16.20;;;10.77;;
51010;SDS011;37038;50.182;8.624;2022-10-23T21:58:37;20.15;;;11.00;;
51010;SDS011;37038;50.182;8.624;2022-10-23T22:01:37;22.42;;;11.70;;
51010;SDS011;37038;50.182;8.624;2022-10-23T22:04:26;22.40;;;12.52;;
51010;SDS011;37038;50.182;8.624;2022-10-23T22:07:14;20.17;;;11.32;;
51010;SDS011;37038;50.182;8.624;2022-10-23T22:10:02;20.20;;;12.05;;
51010;SDS011;37038;50.182;8.624;2022-10-23T22:12:50;22.50;;;11.05;;
51010;SDS011;37038;50.182;8.624;2022-10-23T22:15:38;25.98;;;13.55;;
51010;SDS011;37038;50.182;8.624;2022-10-23T22:18:26;21.38;;;12.63;;
51010;SDS011;37038;50.182;8.624;2022-10-23T22:21:15;20.45;;;13.70;;
51010;SDS011;37038;50.182;8.624;2022-10-23T22:24:04;19.88;;;12.20;;
51010;SDS011;37038;50.182;8.624;2022-10-23T22:26:53;24.88;;;13.25;;
51010;SDS011;37038;50.182;8.624;2022-10-23T22:29:42;27.90;;;13.70;;
51010;SDS011;37038;50.182;8.624;2022-10-23T22:32:30;28.92;;;14.52;;
51010;SDS011;37038;50.182;8.624;2022-10-23T22:35:17;19.65;;;12.27;;
51010;SDS011;37038;50.182;8.624;2022-10-23T22:38:05;19.35;;;11.30;;
51010;SDS011;37038;50.182;8.624;2022-10-23T22:40:52;30.55;;;15.65;;
51010;SDS011;37038;50.182;8.624;2022-10-23T22:43:40;25.25;;;16.45;;
51010;SDS011;37038;50.182;8.624;2022-10-23T22:46:28;27.30;;;15.13;;
51010;SDS011;37038;50.182;8.624;2022-10-23T22:49:16;25.15;;;14.70;;
51010;SDS011;37038;50.182;8.624;2022-10-23T22:52:04;33.78;;;18.73;;
51010;SDS011;37038;50.182;8.624;2022-10-23T22:54:51;26.80;;;17.42;;
51010;SDS011;37038;50.182;8.624;2022-10-23T22:57:39;38.25;;;22.48;;
51010;SDS011;37038;50.182;8.624;2022-10-23T23:00:26;51.58;;;25.88;;
51010;SDS011;37038;50.182;8.624;2022-10-23T23:03:14;52.03;;;25.23;;
51010;SDS011;37038;50.182;8.624;2022-10-23T23:06:03;45.47;;;27.27;;
51010;SDS011;37038;50.182;8.624;2022-10-23T23:08:52;54.22;;;29.27;;
51010;SDS011;37038;50.182;8.624;2022-10-23T23:11:40;46.85;;;26.90;;
51010;SDS011;37038;50.182;8.624;2022-10-23T23:14:38;48.72;;;27.23;;
51010;SDS011;37038;50.182;8.624;2022-10-23T23:17:26;43.67;;;27.38;;
51010;SDS011;37038;50.182;8.624;2022-10-23T23:20:13;42.63;;;22.92;;
51010;SDS011;37038;50.182;8.624;2022-10-23T23:23:01;49.05;;;27.10;;
51010;SDS011;37038;50.182;8.624;2022-10-23T23:25:49;39.83;;;22.23;;
51010;SDS011;37038;50.182;8.624;2022-10-23T23:28:36;43.42;;;24.55;;
51010;SDS011;37038;50.182;8.624;2022-10-23T23:31:24;38.47;;;22.65;;
51010;SDS011;37038;50.182;8.624;2022-10-23T23:34:13;38.55;;;24.50;;
51010;SDS011;37038;50.182;8.624;2022-10-23T23:37:00;36.65;;;21.33;;
51010;SDS011;37038;50.182;8.624;2022-10-23T23:39:48;47.83;;;23.83;;
51010;SDS011;37038;50.182;8.624;2022-10-23T23:42:35;42.97;;;26.20;;
51010;SDS011;37038;50.182;8.624;2022-10-23T23:45:23;45.85;;;27.15;;
51010;SDS011;37038;50.182;8.624;2022-10-23T23:48:10;53.35;;;28.63;;
51010;SDS011;37038;50.182;8.624;2022-10-23T23:50:58;48.20;;;29.02;;
51010;SDS011;37038;50.182;8.624;2022-10-23T23:53:46;62.90;;;31.08;;
51010;SDS011;37038;50.182;8.624;2022-10-23T23:56:34;48.20;;;29.13;;
51010;SDS011;37038;50.182;8.624;2022-10-23T23:59:22;66.13;;;33.70;;
